Sakura — JG5711 — position and weather

sailwx.info

Track history (hours):
 
Tides and Currents Weather Stations Pressure Air Temp Water Temp Dewpoint Dewpoint Depression Visibility Wind Speed Wind Dir Waves Ship Positions

Sakura

Last reported at 2016-Jun-30 22:33 UTC. Time now 2016-Jun-30 23:17 UTC.
Position N 35°29' E 139°42'.

Length 32 m; draft 3.6 m.

Type: Tug. MMSI: 431101178.

Date/timePositionNaut miles runAvg speedWind from/ knotsBaromVisibWave heightAir tempDewpointWater temp
2016-Jun-30 22:33N 35°29' E 139°42'3 2.9
2016-Jun-30 21:33N 35°27' E 139°40'0 0.0
2016-Jun-30 09:19N 35°27' E 139°40'7 9.8
2016-Jun-30 08:33N 35°30' E 139°48'4 4.1
2016-Jun-30 07:33N 35°29' E 139°43'4 3.6
2016-Jun-30 06:33N 35°27' E 139°40'0 0.0
2016-Jun-30 05:33N 35°27' E 139°40'0 0.0
2016-Jun-30 04:33N 35°27' E 139°40'0 0.0
2016-Jun-30 03:33N 35°27' E 139°40'0 0.0
2016-Jun-30 02:33N 35°27' E 139°40'0 0.0
2016-Jun-30 01:33N 35°27' E 139°40'0 0.0
2016-Jun-30 00:33N 35°27' E 139°40'1 1.0
2016-Jun-29 23:33N 35°27' E 139°41'1 1.0
2016-Jun-29 22:33N 35°26' E 139°42'2 1.9
2016-Jun-29 21:33N 35°27' E 139°40'0 0.0
2016-Jun-29 20:33N 35°27' E 139°40'0 0.0
2016-Jun-29 19:34N 35°27' E 139°40'0 0.0
2016-Jun-29 18:34N 35°27' E 139°40'0 0.0
2016-Jun-29 17:33N 35°27' E 139°40'0 0.0
2016-Jun-29 16:34N 35°27' E 139°40'0 0.0
2016-Jun-29 15:34N 35°27' E 139°40'0 0.0
2016-Jun-29 14:34N 35°27' E 139°40'0 0.0
2016-Jun-29 13:34N 35°27' E 139°40'0 0.0
2016-Jun-29 12:34N 35°27' E 139°40'0 0.0
2016-Jun-29 11:34N 35°27' E 139°40'0 0.0
2016-Jun-29 10:34N 35°27' E 139°40'0 0.0
2016-Jun-29 09:34N 35°27' E 139°40'0 0.0
2016-Jun-29 08:34N 35°27' E 139°40'0 0.0
2016-Jun-29 07:33N 35°27' E 139°40'0 0.0
2016-Jun-29 06:33N 35°27' E 139°40'4 4.4
2016-Jun-29 05:33N 35°29' E 139°44'3 2.8
2016-Jun-29 04:33N 35°26' E 139°46'5 5.2
2016-Jun-29 03:33N 35°27' E 139°40'0 0.1
2016-Jun-29 02:33N 35°27' E 139°40'0 0.0
2016-Jun-29 01:33N 35°27' E 139°40'0 0.0
2016-Jun-29 00:33N 35°27' E 139°40'0 0.0
2016-Jun-28 23:33N 35°27' E 139°40'0 0.0
2016-Jun-27 22:09N 35°27' E 139°40'1 2.2
2016-Jun-27 21:33N 35°27' E 139°41'1 0.6
2016-Jun-27 20:33N 35°26' E 139°42'0 0.0
2016-Jun-27 19:33N 35°26' E 139°42'0 0.0
2016-Jun-27 18:33N 35°26' E 139°42'0 0.0
2016-Jun-27 17:33N 35°26' E 139°42'2 1.8
2016-Jun-27 16:33N 35°27' E 139°40'0 0.0
2016-Jun-27 15:33N 35°27' E 139°40'0 0.0
2016-Jun-27 14:33N 35°27' E 139°40'0 0.0
2016-Jun-27 13:33N 35°27' E 139°40'0 0.0
2016-Jun-27 12:33N 35°27' E 139°40'0 0.0
2016-Jun-27 11:33N 35°27' E 139°40'0 0.0
2016-Jun-27 10:33N 35°27' E 139°40'2 1.7
2016-Jun-27 09:33N 35°27' E 139°42'2 1.8
2016-Jun-27 08:33N 35°27' E 139°40'0 0.0
2016-Jun-27 07:34N 35°27' E 139°40'0 0.0
2016-Jun-27 06:34N 35°27' E 139°40'0 0.0
2016-Jun-27 05:33N 35°27' E 139°40'0 0.0
2016-Jun-27 04:33N 35°27' E 139°40'0 0.0
2016-Jun-27 03:33N 35°27' E 139°40'0 0.0
2016-Jun-27 02:33N 35°27' E 139°40'0 0.0
2016-Jun-27 01:33N 35°27' E 139°40'0 0.0
2016-Jun-27 00:33N 35°27' E 139°40'0 0.0
2016-Jun-26 23:33N 35°27' E 139°40'1 1.0
2016-Jun-26 22:33N 35°27' E 139°41'1 1.0
2016-Jun-26 21:34N 35°27' E 139°40'0 0.0
2016-Jun-25 23:07N 35°27' E 139°40'2 3.2
2016-Jun-25 22:33N 35°25' E 139°41'1 1.1
2016-Jun-25 21:33N 35°26' E 139°42'0 0.0
2016-Jun-25 20:33N 35°26' E 139°42'0 0.0
2016-Jun-25 19:33N 35°26' E 139°42'1 1.2
2016-Jun-25 18:33N 35°27' E 139°40'1 1.2
2016-Jun-25 17:33N 35°26' E 139°42'0 0.0
2016-Jun-25 16:33N 35°26' E 139°42'3 2.6
2016-Jun-25 15:33N 35°24' E 139°41'1 0.7
2016-Jun-25 14:33N 35°24' E 139°41'2 1.7
2016-Jun-25 13:33N 35°25' E 139°42'3 3.0
2016-Jun-25 12:33N 35°28' E 139°42'0 0.0
2016-Jun-25 11:33N 35°28' E 139°42'0 0.0
2016-Jun-25 10:33N 35°28' E 139°42'0 0.0
2016-Jun-25 09:33N 35°28' E 139°42'0 0.0
2016-Jun-25 08:33N 35°28' E 139°42'0 0.0
2016-Jun-25 07:33N 35°28' E 139°42'2 1.8
2016-Jun-25 06:33N 35°26' E 139°41'1 1.4
2016-Jun-25 05:33N 35°27' E 139°39'0 0.0
2016-Jun-25 04:33N 35°27' E 139°39'0 0.0
2016-Jun-25 03:33N 35°27' E 139°39'0 0.0
2016-Jun-25 02:33N 35°27' E 139°39'0 0.0
2016-Jun-25 01:33N 35°27' E 139°39'7 7.3
2016-Jun-25 00:33N 35°30' E 139°48'5 5.0
2016-Jun-24 23:33N 35°29' E 139°42'2 0.1
2016-Jun-23 23:24N 35°27' E 139°40'2 2.3
2016-Jun-23 22:33N 35°26' E 139°42'1 0.8
2016-Jun-23 21:33N 35°27' E 139°42'2 1.8
2016-Jun-23 20:33N 35°27' E 139°40'0 0.0
2016-Jun-23 12:33N 35°27' E 139°40'3 2.6
2016-Jun-23 11:34N 35°26' E 139°43'1 1.3
2016-Jun-23 10:33N 35°27' E 139°42'0 0.0
2016-Jun-23 09:34N 35°27' E 139°42'0 0.1
2016-Jun-23 08:33N 35°27' E 139°43'1 1.0
2016-Jun-23 07:33N 35°28' E 139°42'2 1.1
2016-Jun-23 05:33N 35°29' E 139°43'4 3.8
2016-Jun-23 04:33N 35°27' E 139°40'0 0.0
2016-Jun-23 03:33N 35°27' E 139°40'0 0.0
2016-Jun-23 02:33N 35°27' E 139°40'0 0.0
2016-Jun-23 01:33N 35°27' E 139°40'0 0.0
2016-Jun-23 00:33N 35°27' E 139°40'0 0.0
2016-Jun-22 23:33N 35°27' E 139°40'0 0.0
2016-Jun-22 22:33N 35°27' E 139°40'0 0.0
2016-Jun-22 21:33N 35°27' E 139°40'0 0.0
2016-Jun-22 20:33N 35°27' E 139°40'0 0.0
2016-Jun-22 19:33N 35°27' E 139°40'0 0.0
2016-Jun-22 18:33N 35°27' E 139°40'0 0.0
2016-Jun-22 17:33N 35°27' E 139°40'0 0.0
2016-Jun-22 16:33N 35°27' E 139°40'0 0.0
2016-Jun-22 15:33N 35°27' E 139°40'0 0.0
2016-Jun-22 14:33N 35°27' E 139°40'0 0.0
2016-Jun-22 13:33N 35°27' E 139°40'0 0.0
2016-Jun-22 12:33N 35°27' E 139°40'0 0.0
2016-Jun-22 11:33N 35°27' E 139°40'0 0.0
2016-Jun-22 10:33N 35°27' E 139°40'0 0.0
2016-Jun-22 09:33N 35°27' E 139°40'0 0.0
2016-Jun-22 08:33N 35°27' E 139°40'0 0.0
2016-Jun-22 07:33N 35°27' E 139°40'0 0.0
2016-Jun-22 06:33N 35°27' E 139°40'0 0.0
2016-Jun-22 05:33N 35°27' E 139°40'0 0.0
2016-Jun-22 04:33N 35°27' E 139°40'0 0.0
2016-Jun-22 03:33N 35°27' E 139°40'0 0.0
2016-Jun-22 02:33N 35°27' E 139°40'0 0.0
2016-Jun-22 01:33N 35°27' E 139°40'0 0.0
2016-Jun-22 00:33N 35°27' E 139°40'5 5.0
2016-Jun-21 23:33N 35°30' E 139°44'1 0.5
2016-Jun-21 22:33N 35°30' E 139°45'2 1.8
2016-Jun-21 21:33N 35°28' E 139°45'5 4.8
2016-Jun-21 20:33N 35°27' E 139°40'0 0.0
2016-Jun-21 05:33N 35°27' E 139°40'1 1.3
2016-Jun-21 04:33N 35°26' E 139°41'2 1.5
2016-Jun-21 03:33N 35°28' E 139°41'0 0.0
2016-Jun-21 02:33N 35°28' E 139°41'0 0.0
2016-Jun-21 01:33N 35°28' E 139°41'0 0.0
2016-Jun-21 00:33N 35°28' E 139°41'0 0.0
2016-Jun-20 23:33N 35°28' E 139°41'  
Track history (hours):
 
Tides and Currents Weather Stations Pressure Air Temp Water Temp Dewpoint Dewpoint Depression Visibility Wind Speed Wind Dir Waves Ship Positions

Sakura

Last reported at 2016-Jun-30 22:33 UTC. Time now 2016-Jun-30 23:17 UTC.
Position N 35°29' E 139°42'.

Length 32 m; draft 3.6 m.

Type: Tug. MMSI: 431101178.

Date/timePositionNaut miles runAvg speedWind from/ knotsBaromVisibWave heightAir tempDewpointWater temp
2016-Jun-30 22:33N 35°29' E 139°42'3 2.9
2016-Jun-30 21:33N 35°27' E 139°40'0 0.0
2016-Jun-30 09:19N 35°27' E 139°40'7 9.8
2016-Jun-30 08:33N 35°30' E 139°48'4 4.1
2016-Jun-30 07:33N 35°29' E 139°43'4 3.6
2016-Jun-30 06:33N 35°27' E 139°40'0 0.0
2016-Jun-30 05:33N 35°27' E 139°40'0 0.0
2016-Jun-30 04:33N 35°27' E 139°40'0 0.0
2016-Jun-30 03:33N 35°27' E 139°40'0 0.0
2016-Jun-30 02:33N 35°27' E 139°40'0 0.0
2016-Jun-30 01:33N 35°27' E 139°40'0 0.0
2016-Jun-30 00:33N 35°27' E 139°40'1 1.0
2016-Jun-29 23:33N 35°27' E 139°41'1 1.0
2016-Jun-29 22:33N 35°26' E 139°42'2 1.9
2016-Jun-29 21:33N 35°27' E 139°40'0 0.0
2016-Jun-29 20:33N 35°27' E 139°40'0 0.0
2016-Jun-29 19:34N 35°27' E 139°40'0 0.0
2016-Jun-29 18:34N 35°27' E 139°40'0 0.0
2016-Jun-29 17:33N 35°27' E 139°40'0 0.0
2016-Jun-29 16:34N 35°27' E 139°40'0 0.0
2016-Jun-29 15:34N 35°27' E 139°40'0 0.0
2016-Jun-29 14:34N 35°27' E 139°40'0 0.0
2016-Jun-29 13:34N 35°27' E 139°40'0 0.0
2016-Jun-29 12:34N 35°27' E 139°40'0 0.0
2016-Jun-29 11:34N 35°27' E 139°40'0 0.0
2016-Jun-29 10:34N 35°27' E 139°40'0 0.0
2016-Jun-29 09:34N 35°27' E 139°40'0 0.0
2016-Jun-29 08:34N 35°27' E 139°40'0 0.0
2016-Jun-29 07:33N 35°27' E 139°40'0 0.0
2016-Jun-29 06:33N 35°27' E 139°40'4 4.4
2016-Jun-29 05:33N 35°29' E 139°44'3 2.8
2016-Jun-29 04:33N 35°26' E 139°46'5 5.2
2016-Jun-29 03:33N 35°27' E 139°40'0 0.1
2016-Jun-29 02:33N 35°27' E 139°40'0 0.0
2016-Jun-29 01:33N 35°27' E 139°40'0 0.0
2016-Jun-29 00:33N 35°27' E 139°40'0 0.0
2016-Jun-28 23:33N 35°27' E 139°40'0 0.0
2016-Jun-27 22:09N 35°27' E 139°40'1 2.2
2016-Jun-27 21:33N 35°27' E 139°41'1 0.6
2016-Jun-27 20:33N 35°26' E 139°42'0 0.0
2016-Jun-27 19:33N 35°26' E 139°42'0 0.0
2016-Jun-27 18:33N 35°26' E 139°42'0 0.0
2016-Jun-27 17:33N 35°26' E 139°42'2 1.8
2016-Jun-27 16:33N 35°27' E 139°40'0 0.0
2016-Jun-27 15:33N 35°27' E 139°40'0 0.0
2016-Jun-27 14:33N 35°27' E 139°40'0 0.0
2016-Jun-27 13:33N 35°27' E 139°40'0 0.0
2016-Jun-27 12:33N 35°27' E 139°40'0 0.0
2016-Jun-27 11:33N 35°27' E 139°40'0 0.0
2016-Jun-27 10:33N 35°27' E 139°40'2 1.7
2016-Jun-27 09:33N 35°27' E 139°42'2 1.8
2016-Jun-27 08:33N 35°27' E 139°40'0 0.0
2016-Jun-27 07:34N 35°27' E 139°40'0 0.0
2016-Jun-27 06:34N 35°27' E 139°40'0 0.0
2016-Jun-27 05:33N 35°27' E 139°40'0 0.0
2016-Jun-27 04:33N 35°27' E 139°40'0 0.0
2016-Jun-27 03:33N 35°27' E 139°40'0 0.0
2016-Jun-27 02:33N 35°27' E 139°40'0 0.0
2016-Jun-27 01:33N 35°27' E 139°40'0 0.0
2016-Jun-27 00:33N 35°27' E 139°40'0 0.0
2016-Jun-26 23:33N 35°27' E 139°40'1 1.0
2016-Jun-26 22:33N 35°27' E 139°41'1 1.0
2016-Jun-26 21:34N 35°27' E 139°40'0 0.0
2016-Jun-25 23:07N 35°27' E 139°40'2 3.2
2016-Jun-25 22:33N 35°25' E 139°41'1 1.1
2016-Jun-25 21:33N 35°26' E 139°42'0 0.0
2016-Jun-25 20:33N 35°26' E 139°42'0 0.0
2016-Jun-25 19:33N 35°26' E 139°42'1 1.2
2016-Jun-25 18:33N 35°27' E 139°40'1 1.2
2016-Jun-25 17:33N 35°26' E 139°42'0 0.0
2016-Jun-25 16:33N 35°26' E 139°42'3 2.6
2016-Jun-25 15:33N 35°24' E 139°41'1 0.7
2016-Jun-25 14:33N 35°24' E 139°41'2 1.7
2016-Jun-25 13:33N 35°25' E 139°42'3 3.0
2016-Jun-25 12:33N 35°28' E 139°42'0 0.0
2016-Jun-25 11:33N 35°28' E 139°42'0 0.0
2016-Jun-25 10:33N 35°28' E 139°42'0 0.0
2016-Jun-25 09:33N 35°28' E 139°42'0 0.0
2016-Jun-25 08:33N 35°28' E 139°42'0 0.0
2016-Jun-25 07:33N 35°28' E 139°42'2 1.8
2016-Jun-25 06:33N 35°26' E 139°41'1 1.4
2016-Jun-25 05:33N 35°27' E 139°39'0 0.0
2016-Jun-25 04:33N 35°27' E 139°39'0 0.0
2016-Jun-25 03:33N 35°27' E 139°39'0 0.0
2016-Jun-25 02:33N 35°27' E 139°39'0 0.0
2016-Jun-25 01:33N 35°27' E 139°39'7 7.3
2016-Jun-25 00:33N 35°30' E 139°48'5 5.0
2016-Jun-24 23:33N 35°29' E 139°42'2 0.1
2016-Jun-23 23:24N 35°27' E 139°40'2 2.3
2016-Jun-23 22:33N 35°26' E 139°42'1 0.8
2016-Jun-23 21:33N 35°27' E 139°42'2 1.8
2016-Jun-23 20:33N 35°27' E 139°40'0 0.0
2016-Jun-23 12:33N 35°27' E 139°40'3 2.6
2016-Jun-23 11:34N 35°26' E 139°43'1 1.3
2016-Jun-23 10:33N 35°27' E 139°42'0 0.0
2016-Jun-23 09:34N 35°27' E 139°42'0 0.1
2016-Jun-23 08:33N 35°27' E 139°43'1 1.0
2016-Jun-23 07:33N 35°28' E 139°42'2 1.1
2016-Jun-23 05:33N 35°29' E 139°43'4 3.8
2016-Jun-23 04:33N 35°27' E 139°40'0 0.0
2016-Jun-23 03:33N 35°27' E 139°40'0 0.0
2016-Jun-23 02:33N 35°27' E 139°40'0 0.0
2016-Jun-23 01:33N 35°27' E 139°40'0 0.0
2016-Jun-23 00:33N 35°27' E 139°40'0 0.0
2016-Jun-22 23:33N 35°27' E 139°40'0 0.0
2016-Jun-22 22:33N 35°27' E 139°40'0 0.0
2016-Jun-22 21:33N 35°27' E 139°40'0 0.0
2016-Jun-22 20:33N 35°27' E 139°40'0 0.0
2016-Jun-22 19:33N 35°27' E 139°40'0 0.0
2016-Jun-22 18:33N 35°27' E 139°40'0 0.0
2016-Jun-22 17:33N 35°27' E 139°40'0 0.0
2016-Jun-22 16:33N 35°27' E 139°40'0 0.0
2016-Jun-22 15:33N 35°27' E 139°40'0 0.0
2016-Jun-22 14:33N 35°27' E 139°40'0 0.0
2016-Jun-22 13:33N 35°27' E 139°40'0 0.0
2016-Jun-22 12:33N 35°27' E 139°40'0 0.0
2016-Jun-22 11:33N 35°27' E 139°40'0 0.0
2016-Jun-22 10:33N 35°27' E 139°40'0 0.0
2016-Jun-22 09:33N 35°27' E 139°40'0 0.0
2016-Jun-22 08:33N 35°27' E 139°40'0 0.0
2016-Jun-22 07:33N 35°27' E 139°40'0 0.0
2016-Jun-22 06:33N 35°27' E 139°40'0 0.0
2016-Jun-22 05:33N 35°27' E 139°40'0 0.0
2016-Jun-22 04:33N 35°27' E 139°40'0 0.0
2016-Jun-22 03:33N 35°27' E 139°40'0 0.0
2016-Jun-22 02:33N 35°27' E 139°40'0 0.0
2016-Jun-22 01:33N 35°27' E 139°40'0 0.0
2016-Jun-22 00:33N 35°27' E 139°40'5 5.0
2016-Jun-21 23:33N 35°30' E 139°44'1 0.5
2016-Jun-21 22:33N 35°30' E 139°45'2 1.8
2016-Jun-21 21:33N 35°28' E 139°45'5 4.8
2016-Jun-21 20:33N 35°27' E 139°40'0 0.0
2016-Jun-21 05:33N 35°27' E 139°40'1 1.3
2016-Jun-21 04:33N 35°26' E 139°41'2 1.5
2016-Jun-21 03:33N 35°28' E 139°41'0 0.0
2016-Jun-21 02:33N 35°28' E 139°41'0 0.0
2016-Jun-21 01:33N 35°28' E 139°41'0 0.0
2016-Jun-21 00:33N 35°28' E 139°41'0 0.0
2016-Jun-20 23:33N 35°28' E 139°41'  

Dump ship's entire track history